DEMXB EDXW-EDWR
Flight info
| Callsign | DEMXB |
|---|---|
| Flight time | 1h 2m |
| Altitude | 4500 |
| Route | 5456N00818E 5455N00816E 5453N00816E DCT 5445N00815E DCT EDXO DCT EDXH DCT EDWG DCT EDWY DCT 5341N00643E |
| Aircraft | PA24/L-SFGRY/S |
Departure
| Time | 2026-04-24 18:55 |
|---|---|
| Airport | Westerland Sylt Airport (EDXW) |
Arrival
| Time | 2026-04-24 19:57 |
|---|---|
| Airport | Borkum Airport (EDWR) |
| Time | Latitude | Longitude | Altitude | Speed | Heading |
|---|---|---|---|---|---|
| 2026-04-24 18:54 | 54.65369 | 8.33403 | 4470 ft | 179 kts | 151° |
| 2026-04-24 18:55 | 54.63222 | 8.35578 | 4382 ft | 180 kts | 151° |
| 2026-04-24 18:55 | 54.62122 | 8.36595 | 4370 ft | 179 kts | 155° |
| 2026-04-24 18:55 | 54.61006 | 8.37547 | 4367 ft | 179 kts | 155° |
| 2026-04-24 18:56 | 54.59903 | 8.38540 | 4353 ft | 179 kts | 153° |
| 2026-04-24 18:56 | 54.58802 | 8.39543 | 4340 ft | 179 kts | 154° |
| 2026-04-24 18:56 | 54.57708 | 8.40558 | 4319 ft | 179 kts | 152° |
| 2026-04-24 18:56 | 54.56623 | 8.41574 | 4329 ft | 176 kts | 153° |
| 2026-04-24 18:57 | 54.55541 | 8.42600 | 4288 ft | 179 kts | 153° |
| 2026-04-24 18:57 | 54.54455 | 8.43646 | 4279 ft | 178 kts | 150° |
| 2026-04-24 18:57 | 54.53399 | 8.44694 | 4348 ft | 173 kts | 153° |
| 2026-04-24 18:57 | 54.52377 | 8.45756 | 4393 ft | 171 kts | 146° |
| 2026-04-24 18:58 | 54.51402 | 8.46937 | 4414 ft | 172 kts | 144° |
| 2026-04-24 18:58 | 54.50438 | 8.48142 | 4452 ft | 171 kts | 143° |
| 2026-04-24 18:58 | 54.49499 | 8.49405 | 4467 ft | 172 kts | 140° |
| 2026-04-24 18:58 | 54.48577 | 8.50711 | 4484 ft | 172 kts | 144° |
| 2026-04-24 18:59 | 54.47531 | 8.51729 | 4492 ft | 172 kts | 153° |
| 2026-04-24 18:59 | 54.46479 | 8.52672 | 4483 ft | 174 kts | 154° |
| 2026-04-24 18:59 | 54.45426 | 8.53679 | 4509 ft | 173 kts | 150° |
| 2026-04-24 18:59 | 54.44379 | 8.54692 | 4510 ft | 173 kts | 153° |
| 2026-04-24 19:00 | 54.43325 | 8.55683 | 4522 ft | 173 kts | 152° |
| 2026-04-24 19:00 | 54.42260 | 8.56639 | 4537 ft | 172 kts | 154° |
| 2026-04-24 19:00 | 54.41227 | 8.57701 | 4531 ft | 174 kts | 148° |
| 2026-04-24 19:00 | 54.40217 | 8.58826 | 4557 ft | 172 kts | 149° |
| 2026-04-24 19:01 | 54.39191 | 8.59890 | 4561 ft | 173 kts | 149° |
| 2026-04-24 19:01 | 54.38152 | 8.60919 | 4571 ft | 172 kts | 153° |
| 2026-04-24 19:01 | 54.37098 | 8.61906 | 4559 ft | 173 kts | 151° |
| 2026-04-24 19:01 | 54.36042 | 8.62973 | 4557 ft | 173 kts | 152° |
| 2026-04-24 19:02 | 54.35335 | 8.63605 | 4566 ft | 173 kts | 154° |
| 2026-04-24 19:02 | 54.33924 | 8.64886 | 4571 ft | 173 kts | 152° |
| 2026-04-24 19:02 | 54.32870 | 8.65895 | 4574 ft | 173 kts | 150° |
| 2026-04-24 19:02 | 54.31854 | 8.67003 | 4575 ft | 173 kts | 153° |
| 2026-04-24 19:03 | 54.30722 | 8.67176 | 4637 ft | 165 kts | 206° |
| 2026-04-24 19:03 | 54.30053 | 8.65843 | 4713 ft | 144 kts | 262° |
| 2026-04-24 19:03 | 54.29828 | 8.64194 | 4623 ft | 141 kts | 266° |
| 2026-04-24 19:03 | 54.29582 | 8.62614 | 4713 ft | 134 kts | 261° |
| 2026-04-24 19:04 | 54.29269 | 8.61054 | 4603 ft | 144 kts | 259° |
| 2026-04-24 19:04 | 54.28950 | 8.59436 | 4630 ft | 140 kts | 264° |
| 2026-04-24 19:04 | 54.28738 | 8.57846 | 4656 ft | 136 kts | 267° |
| 2026-04-24 19:04 | 54.28545 | 8.56252 | 4650 ft | 137 kts | 266° |
| 2026-04-24 19:05 | 54.28332 | 8.54679 | 4666 ft | 135 kts | 264° |
| 2026-04-24 19:05 | 54.28077 | 8.53117 | 4675 ft | 138 kts | 262° |
| 2026-04-24 19:05 | 54.27771 | 8.51542 | 4653 ft | 140 kts | 261° |
| 2026-04-24 19:05 | 54.27461 | 8.49966 | 4681 ft | 139 kts | 261° |
| 2026-04-24 19:06 | 54.27137 | 8.48399 | 4686 ft | 140 kts | 260° |
| 2026-04-24 19:06 | 54.26815 | 8.46829 | 4696 ft | 139 kts | 264° |
| 2026-04-24 19:06 | 54.26620 | 8.45210 | 4683 ft | 138 kts | 269° |
| 2026-04-24 19:06 | 54.26431 | 8.43609 | 4698 ft | 137 kts | 264° |
| 2026-04-24 19:07 | 54.26152 | 8.42036 | 4692 ft | 140 kts | 261° |
| 2026-04-24 19:07 | 54.25837 | 8.40444 | 4694 ft | 141 kts | 261° |
| 2026-04-24 19:07 | 54.25632 | 8.39394 | 4705 ft | 140 kts | 261° |
| 2026-04-24 19:07 | 54.25200 | 8.37282 | 4610 ft | 142 kts | 259° |
| 2026-04-24 19:08 | 54.24907 | 8.35655 | 4481 ft | 143 kts | 263° |
| 2026-04-24 19:08 | 54.24627 | 8.34062 | 4377 ft | 141 kts | 262° |
| 2026-04-24 19:08 | 54.24337 | 8.32447 | 4254 ft | 144 kts | 263° |
| 2026-04-24 19:08 | 54.24036 | 8.30817 | 4121 ft | 143 kts | 261° |
| 2026-04-24 19:09 | 54.23750 | 8.29220 | 4063 ft | 139 kts | 264° |
| 2026-04-24 19:09 | 54.23496 | 8.27614 | 3909 ft | 142 kts | 264° |
| 2026-04-24 19:09 | 54.23275 | 8.25985 | 3809 ft | 139 kts | 268° |
| 2026-04-24 19:09 | 54.23070 | 8.24386 | 3699 ft | 138 kts | 266° |
| 2026-04-24 19:10 | 54.22931 | 8.23316 | 3612 ft | 140 kts | 268° |
| 2026-04-24 19:10 | 54.22733 | 8.21696 | 3506 ft | 139 kts | 268° |
| 2026-04-24 19:10 | 54.22547 | 8.20071 | 3373 ft | 139 kts | 268° |
| 2026-04-24 19:10 | 54.22338 | 8.18453 | 3264 ft | 139 kts | 267° |
| 2026-04-24 19:11 | 54.22112 | 8.16838 | 3132 ft | 141 kts | 266° |
| 2026-04-24 19:11 | 54.21873 | 8.15204 | 3016 ft | 142 kts | 267° |
| 2026-04-24 19:11 | 54.21688 | 8.13562 | 2913 ft | 140 kts | 272° |
| 2026-04-24 19:11 | 54.21564 | 8.11919 | 2798 ft | 139 kts | 271° |
| 2026-04-24 19:12 | 54.21418 | 8.10290 | 2704 ft | 139 kts | 271° |
| 2026-04-24 19:12 | 54.21294 | 8.08641 | 2639 ft | 140 kts | 272° |
| 2026-04-24 19:12 | 54.21168 | 8.06995 | 2625 ft | 141 kts | 269° |
| 2026-04-24 19:12 | 54.21013 | 8.05339 | 2630 ft | 140 kts | 271° |
| 2026-04-24 19:13 | 54.20933 | 8.04254 | 2642 ft | 138 kts | 272° |
| 2026-04-24 19:13 | 54.20805 | 8.02068 | 2618 ft | 139 kts | 271° |
| 2026-04-24 19:13 | 54.20650 | 8.00459 | 2679 ft | 136 kts | 271° |
| 2026-04-24 19:13 | 54.20495 | 7.98858 | 2662 ft | 138 kts | 269° |
| 2026-04-24 19:14 | 54.20341 | 7.97232 | 2679 ft | 138 kts | 271° |
| 2026-04-24 19:14 | 54.20220 | 7.95610 | 2688 ft | 137 kts | 274° |
| 2026-04-24 19:14 | 54.20107 | 7.93982 | 2665 ft | 139 kts | 271° |
| 2026-04-24 19:14 | 54.19944 | 7.92362 | 2672 ft | 138 kts | 269° |
| 2026-04-24 19:15 | 54.19698 | 7.90761 | 2608 ft | 143 kts | 257° |
| 2026-04-24 19:15 | 54.19146 | 7.89317 | 2557 ft | 151 kts | 233° |
| 2026-04-24 19:15 | 54.18194 | 7.88513 | 2523 ft | 160 kts | 195° |
| 2026-04-24 19:15 | 54.17131 | 7.88976 | 2461 ft | 166 kts | 140° |
| 2026-04-24 19:16 | 54.16651 | 7.92605 | 2437 ft | 154 kts | 67° |
| 2026-04-24 19:16 | 54.17057 | 7.94205 | 2548 ft | 143 kts | 40° |
| 2026-04-24 19:16 | 54.17906 | 7.94888 | 2601 ft | 130 kts | 355° |
| 2026-04-24 19:17 | 54.18652 | 7.94297 | 2687 ft | 122 kts | 309° |
| 2026-04-24 19:17 | 54.18757 | 7.92806 | 2491 ft | 144 kts | 256° |
| 2026-04-24 19:17 | 54.17972 | 7.91686 | 2415 ft | 159 kts | 201° |
| 2026-04-24 19:17 | 54.16856 | 7.92035 | 2323 ft | 169 kts | 160° |
| 2026-04-24 19:18 | 54.15778 | 7.92809 | 2383 ft | 168 kts | 156° |
| 2026-04-24 19:18 | 54.14703 | 7.93593 | 2356 ft | 170 kts | 163° |
| 2026-04-24 19:18 | 54.13530 | 7.93898 | 2342 ft | 170 kts | 182° |
| 2026-04-24 19:18 | 54.12371 | 7.93719 | 2388 ft | 166 kts | 192° |
| 2026-04-24 19:19 | 54.11228 | 7.93428 | 2398 ft | 166 kts | 195° |
| 2026-04-24 19:19 | 54.10096 | 7.93062 | 2418 ft | 165 kts | 199° |
| 2026-04-24 19:19 | 54.08979 | 7.92634 | 2429 ft | 165 kts | 198° |
| 2026-04-24 19:19 | 54.07838 | 7.92373 | 2418 ft | 166 kts | 192° |
| 2026-04-24 19:20 | 54.06695 | 7.92259 | 2429 ft | 167 kts | 185° |
| 2026-04-24 19:20 | 54.05511 | 7.92282 | 2430 ft | 169 kts | 183° |
| 2026-04-24 19:20 | 54.04341 | 7.92321 | 2434 ft | 168 kts | 186° |
| 2026-04-24 19:20 | 54.03177 | 7.92242 | 2445 ft | 167 kts | 186° |
| 2026-04-24 19:21 | 54.02022 | 7.92197 | 2454 ft | 166 kts | 185° |
| 2026-04-24 19:21 | 54.00863 | 7.92131 | 2454 ft | 167 kts | 188° |
| 2026-04-24 19:21 | 53.99702 | 7.91997 | 2465 ft | 168 kts | 186° |
| 2026-04-24 19:21 | 53.98526 | 7.92002 | 2468 ft | 170 kts | 184° |
| 2026-04-24 19:22 | 53.97751 | 7.91992 | 2480 ft | 167 kts | 185° |
| 2026-04-24 19:22 | 53.96208 | 7.91956 | 2492 ft | 168 kts | 185° |
| 2026-04-24 19:22 | 53.95043 | 7.91896 | 2502 ft | 166 kts | 187° |
| 2026-04-24 19:22 | 53.93890 | 7.91823 | 2519 ft | 165 kts | 187° |
| 2026-04-24 19:23 | 53.92740 | 7.91744 | 2514 ft | 166 kts | 187° |
| 2026-04-24 19:23 | 53.91593 | 7.91616 | 2522 ft | 165 kts | 190° |
| 2026-04-24 19:23 | 53.90438 | 7.91521 | 2498 ft | 168 kts | 181° |
| 2026-04-24 19:23 | 53.89268 | 7.91729 | 2500 ft | 169 kts | 176° |
| 2026-04-24 19:24 | 53.88103 | 7.91959 | 2533 ft | 169 kts | 179° |
| 2026-04-24 19:24 | 53.86926 | 7.92085 | 2533 ft | 169 kts | 180° |
| 2026-04-24 19:24 | 53.85756 | 7.92166 | 2564 ft | 167 kts | 184° |
| 2026-04-24 19:24 | 53.84594 | 7.92167 | 2566 ft | 167 kts | 185° |
| 2026-04-24 19:25 | 53.83433 | 7.92151 | 2591 ft | 166 kts | 185° |
| 2026-04-24 19:25 | 53.82274 | 7.92143 | 2597 ft | 167 kts | 184° |
| 2026-04-24 19:25 | 53.81113 | 7.92142 | 2614 ft | 167 kts | 184° |
| 2026-04-24 19:25 | 53.79950 | 7.92149 | 2634 ft | 168 kts | 184° |
| 2026-04-24 19:26 | 53.78789 | 7.91954 | 2631 ft | 168 kts | 199° |
| 2026-04-24 19:26 | 53.77721 | 7.91231 | 2667 ft | 163 kts | 217° |
| 2026-04-24 19:26 | 53.76869 | 7.90046 | 2713 ft | 156 kts | 236° |
| 2026-04-24 19:26 | 53.76277 | 7.88586 | 2754 ft | 149 kts | 253° |
| 2026-04-24 19:27 | 53.75999 | 7.86926 | 2785 ft | 142 kts | 274° |
| 2026-04-24 19:27 | 53.76097 | 7.85351 | 2826 ft | 134 kts | 296° |
| 2026-04-24 19:27 | 53.76680 | 7.84175 | 2760 ft | 132 kts | 330° |
| 2026-04-24 19:27 | 53.77478 | 7.83532 | 2845 ft | 123 kts | 337° |
| 2026-04-24 19:28 | 53.78206 | 7.82743 | 2786 ft | 127 kts | 316° |
| 2026-04-24 19:28 | 53.78614 | 7.81445 | 2805 ft | 129 kts | 287° |
| 2026-04-24 19:28 | 53.78646 | 7.79880 | 2781 ft | 136 kts | 278° |
| 2026-04-24 19:28 | 53.78643 | 7.78270 | 2798 ft | 137 kts | 277° |
| 2026-04-24 19:29 | 53.78578 | 7.75036 | 2818 ft | 138 kts | 277° |
| 2026-04-24 19:29 | 53.78456 | 7.73415 | 2809 ft | 141 kts | 269° |
| 2026-04-24 19:29 | 53.78275 | 7.71793 | 2832 ft | 140 kts | 269° |
| 2026-04-24 19:30 | 53.78113 | 7.70179 | 2847 ft | 139 kts | 271° |
| 2026-04-24 19:30 | 53.77973 | 7.68556 | 2850 ft | 140 kts | 269° |
| 2026-04-24 19:30 | 53.77761 | 7.66942 | 2857 ft | 141 kts | 267° |
| 2026-04-24 19:30 | 53.77581 | 7.65316 | 2880 ft | 140 kts | 269° |
| 2026-04-24 19:31 | 53.77405 | 7.63692 | 2889 ft | 141 kts | 269° |
| 2026-04-24 19:31 | 53.77222 | 7.62068 | 2899 ft | 141 kts | 268° |
| 2026-04-24 19:31 | 53.77046 | 7.60443 | 2909 ft | 140 kts | 270° |
| 2026-04-24 19:31 | 53.76896 | 7.58820 | 2921 ft | 140 kts | 270° |
| 2026-04-24 19:32 | 53.76734 | 7.57199 | 2932 ft | 140 kts | 269° |
| 2026-04-24 19:32 | 53.76560 | 7.55574 | 2943 ft | 141 kts | 269° |
| 2026-04-24 19:32 | 53.76396 | 7.53946 | 2958 ft | 140 kts | 269° |
| 2026-04-24 19:32 | 53.76235 | 7.52319 | 2982 ft | 140 kts | 270° |
| 2026-04-24 19:33 | 53.76100 | 7.50687 | 2997 ft | 140 kts | 270° |
| 2026-04-24 19:33 | 53.75911 | 7.49052 | 2980 ft | 144 kts | 266° |
| 2026-04-24 19:33 | 53.75692 | 7.47386 | 2989 ft | 145 kts | 267° |
| 2026-04-24 19:33 | 53.75487 | 7.45710 | 2985 ft | 146 kts | 269° |
| 2026-04-24 19:34 | 53.75328 | 7.44024 | 2998 ft | 145 kts | 272° |
| 2026-04-24 19:34 | 53.75240 | 7.42348 | 3015 ft | 142 kts | 276° |
| 2026-04-24 19:34 | 53.75229 | 7.40690 | 3007 ft | 140 kts | 278° |
| 2026-04-24 19:34 | 53.75073 | 7.39029 | 2953 ft | 146 kts | 265° |
| 2026-04-24 19:35 | 53.74799 | 7.37407 | 2989 ft | 145 kts | 263° |
| 2026-04-24 19:35 | 53.74533 | 7.35750 | 2972 ft | 147 kts | 266° |
| 2026-04-24 19:35 | 53.74304 | 7.34071 | 2974 ft | 146 kts | 266° |
| 2026-04-24 19:35 | 53.74064 | 7.32408 | 2978 ft | 146 kts | 265° |
| 2026-04-24 19:36 | 53.73829 | 7.30738 | 2963 ft | 146 kts | 267° |
| 2026-04-24 19:36 | 53.73642 | 7.29058 | 2985 ft | 145 kts | 269° |
| 2026-04-24 19:36 | 53.73473 | 7.27385 | 2968 ft | 145 kts | 268° |
| 2026-04-24 19:36 | 53.73273 | 7.25708 | 2967 ft | 145 kts | 268° |
| 2026-04-24 19:37 | 53.73100 | 7.24047 | 2967 ft | 143 kts | 268° |
| 2026-04-24 19:37 | 53.72914 | 7.22377 | 2969 ft | 145 kts | 269° |
| 2026-04-24 19:37 | 53.72785 | 7.20697 | 2984 ft | 144 kts | 274° |
| 2026-04-24 19:37 | 53.72729 | 7.19021 | 2973 ft | 143 kts | 272° |
| 2026-04-24 19:38 | 53.72488 | 7.17360 | 2915 ft | 148 kts | 260° |
| 2026-04-24 19:38 | 53.72167 | 7.15731 | 2954 ft | 145 kts | 261° |
| 2026-04-24 19:38 | 53.71882 | 7.14090 | 2923 ft | 147 kts | 262° |
| 2026-04-24 19:38 | 53.71575 | 7.12442 | 2926 ft | 147 kts | 261° |
| 2026-04-24 19:39 | 53.71231 | 7.10814 | 2925 ft | 149 kts | 258° |
| 2026-04-24 19:39 | 53.70860 | 7.09177 | 2922 ft | 149 kts | 258° |
| 2026-04-24 19:39 | 53.70522 | 7.07527 | 2939 ft | 148 kts | 259° |
| 2026-04-24 19:39 | 53.70114 | 7.05922 | 2898 ft | 150 kts | 251° |
| 2026-04-24 19:40 | 53.69618 | 7.04364 | 2903 ft | 151 kts | 250° |
| 2026-04-24 19:40 | 53.69183 | 7.02761 | 2917 ft | 150 kts | 261° |
| 2026-04-24 19:40 | 53.68973 | 7.01061 | 2928 ft | 146 kts | 272° |
| 2026-04-24 19:40 | 53.68899 | 6.99387 | 2966 ft | 141 kts | 277° |
| 2026-04-24 19:41 | 53.68863 | 6.97728 | 2942 ft | 142 kts | 277° |
| 2026-04-24 19:41 | 53.68867 | 6.96071 | 2958 ft | 140 kts | 279° |
| 2026-04-24 19:41 | 53.68844 | 6.94420 | 2939 ft | 141 kts | 275° |
| 2026-04-24 19:41 | 53.68756 | 6.92757 | 2939 ft | 143 kts | 272° |
| 2026-04-24 19:42 | 53.68672 | 6.91090 | 2957 ft | 142 kts | 277° |
| 2026-04-24 19:42 | 53.68697 | 6.89351 | 2948 ft | 141 kts | 281° |
| 2026-04-24 19:42 | 53.68781 | 6.87793 | 2940 ft | 139 kts | 286° |
| 2026-04-24 19:42 | 53.68889 | 6.86190 | 2913 ft | 139 kts | 283° |
| 2026-04-24 19:43 | 53.68988 | 6.84578 | 2884 ft | 137 kts | 284° |
| 2026-04-24 19:43 | 53.69080 | 6.82974 | 2772 ft | 139 kts | 283° |
| 2026-04-24 19:43 | 53.69146 | 6.81354 | 2676 ft | 138 kts | 281° |
| 2026-04-24 19:43 | 53.69127 | 6.79730 | 2562 ft | 140 kts | 274° |
| 2026-04-24 19:44 | 53.69052 | 6.78083 | 2465 ft | 141 kts | 274° |
| 2026-04-24 19:44 | 53.69019 | 6.76434 | 2366 ft | 141 kts | 276° |
| 2026-04-24 19:44 | 53.69005 | 6.74779 | 2253 ft | 141 kts | 275° |
| 2026-04-24 19:44 | 53.68921 | 6.73133 | 2128 ft | 141 kts | 270° |
| 2026-04-24 19:45 | 53.68828 | 6.71489 | 2039 ft | 141 kts | 272° |
| 2026-04-24 19:45 | 53.69042 | 6.69917 | 1934 ft | 140 kts | 312° |
| 2026-04-24 19:45 | 53.69866 | 6.69270 | 1860 ft | 134 kts | 3° |
| 2026-04-24 19:45 | 53.70614 | 6.70121 | 1720 ft | 140 kts | 57° |
| 2026-04-24 19:46 | 53.70571 | 6.71769 | 1568 ft | 151 kts | 115° |
| 2026-04-24 19:46 | 53.69702 | 6.72794 | 1333 ft | 160 kts | 170° |
| 2026-04-24 19:46 | 53.68761 | 6.72207 | 1493 ft | 137 kts | 234° |
| 2026-04-24 19:46 | 53.68571 | 6.70852 | 1727 ft | 113 kts | 293° |
| 2026-04-24 19:47 | 53.69089 | 6.69960 | 1749 ft | 111 kts | 343° |
| 2026-04-24 19:47 | 53.69829 | 6.70130 | 1765 ft | 112 kts | 29° |
| 2026-04-24 19:47 | 53.70250 | 6.71228 | 1768 ft | 120 kts | 72° |
| 2026-04-24 19:47 | 53.70074 | 6.72662 | 1683 ft | 135 kts | 118° |
| 2026-04-24 19:48 | 53.69273 | 6.73492 | 1625 ft | 142 kts | 172° |
| 2026-04-24 19:48 | 53.68357 | 6.73133 | 1683 ft | 136 kts | 220° |
| 2026-04-24 19:48 | 53.68036 | 6.70528 | 1822 ft | 116 kts | 311° |
| 2026-04-24 19:49 | 53.69395 | 6.70350 | 1854 ft | 116 kts | 44° |
| 2026-04-24 19:49 | 53.69148 | 6.72980 | 1733 ft | 140 kts | 141° |
| 2026-04-24 19:50 | 53.67232 | 6.71110 | 1801 ft | 124 kts | 291° |
| 2026-04-24 19:50 | 53.67747 | 6.70135 | 1895 ft | 111 kts | 341° |
| 2026-04-24 19:51 | 53.68939 | 6.71352 | 1914 ft | 120 kts | 71° |
| 2026-04-24 19:51 | 53.68815 | 6.72795 | 1860 ft | 133 kts | 111° |
| 2026-04-24 19:52 | 53.67127 | 6.73910 | 1787 ft | 141 kts | 188° |
| 2026-04-24 19:52 | 53.66172 | 6.73719 | 1885 ft | 134 kts | 191° |
| 2026-04-24 19:52 | 53.65263 | 6.73453 | 1942 ft | 134 kts | 195° |
| 2026-04-24 19:52 | 53.64350 | 6.73082 | 1963 ft | 135 kts | 199° |
| 2026-04-24 19:53 | 53.63451 | 6.72634 | 1927 ft | 132 kts | 200° |
| 2026-04-24 19:53 | 53.62581 | 6.72675 | 1797 ft | 127 kts | 161° |
| 2026-04-24 19:53 | 53.61488 | 6.74881 | 1463 ft | 122 kts | 121° |
| 2026-04-24 19:54 | 53.60923 | 6.75975 | 1357 ft | 125 kts | 128° |
| 2026-04-24 19:54 | 53.60350 | 6.77049 | 1229 ft | 121 kts | 131° |
| 2026-04-24 19:54 | 53.59779 | 6.78030 | 1141 ft | 115 kts | 131° |
| 2026-04-24 19:54 | 53.59061 | 6.78565 | 926 ft | 116 kts | 189° |
| 2026-04-24 19:55 | 53.58811 | 6.78421 | 900 ft | 110 kts | 214° |
| 2026-04-24 19:55 | 53.58086 | 6.77345 | 684 ft | 108 kts | 223° |
| 2026-04-24 19:55 | 53.57573 | 6.76523 | 715 ft | 97 kts | 256° |
| 2026-04-24 19:55 | 53.57613 | 6.75464 | 639 ft | 89 kts | 297° |
| 2026-04-24 19:56 | 53.57884 | 6.74622 | 559 ft | 75 kts | 312° |
| 2026-04-24 19:56 | 53.58211 | 6.74022 | 479 ft | 67 kts | 317° |
| 2026-04-24 19:56 | 53.58489 | 6.73423 | 377 ft | 64 kts | 314° |
| 2026-04-24 19:56 | 53.58783 | 6.72876 | 217 ft | 60 kts | 312° |
| 2026-04-24 19:57 | 53.59041 | 6.72358 | 72 ft | 55 kts | 316° |
| 2026-04-24 19:57 | 53.59243 | 6.71966 | 5 ft | 31 kts | 317° |
| 2026-04-24 19:57 | 53.59346 | 6.71755 | 5 ft | 17 kts | 308° |
| 2026-04-24 19:57 | 53.59399 | 6.71646 | 3 ft | 8 kts | 310° |
| 2026-04-24 19:58 | 53.59408 | 6.71596 | 4 ft | 3 kts | 237° |
| 2026-04-24 19:58 | 53.59394 | 6.71571 | 5 ft | 7 kts | 220° |
| 2026-04-24 19:58 | 53.59381 | 6.71552 | 6 ft | 0 kts | 216° |
| 2026-04-24 19:59 | 53.59365 | 6.71532 | 6 ft | 6 kts | 217° |
| 2026-04-24 19:59 | 53.59376 | 6.71470 | 6 ft | 5 kts | 307° |
| 2026-04-24 20:00 | 53.59405 | 6.71409 | 6 ft | 8 kts | 308° |
| 2026-04-24 20:00 | 53.59447 | 6.71325 | 6 ft | 10 kts | 310° |
| 2026-04-24 20:00 | 53.59481 | 6.71259 | 6 ft | 5 kts | 309° |
| 2026-04-24 20:00 | 53.59508 | 6.71203 | 6 ft | 7 kts | 310° |
| 2026-04-24 20:01 | 53.59545 | 6.71130 | 6 ft | 9 kts | 310° |
| 2026-04-24 20:01 | 53.59584 | 6.71051 | 7 ft | 9 kts | 309° |
| 2026-04-24 20:01 | 53.59625 | 6.70967 | 7 ft | 10 kts | 309° |
| 2026-04-24 20:01 | 53.59660 | 6.70899 | 7 ft | 4 kts | 311° |
| 2026-04-24 20:02 | 53.59686 | 6.70846 | 8 ft | 6 kts | 310° |
| 2026-04-24 20:02 | 53.59712 | 6.70794 | 8 ft | 8 kts | 309° |
| 2026-04-24 20:02 | 53.59751 | 6.70710 | 7 ft | 7 kts | 302° |
| 2026-04-24 20:02 | 53.59763 | 6.70641 | 7 ft | 6 kts | 266° |
| 2026-04-24 20:03 | 53.59749 | 6.70566 | 7 ft | 8 kts | 249° |
| 2026-04-24 20:03 | 53.59726 | 6.70464 | 7 ft | 10 kts | 251° |
| 2026-04-24 20:03 | 53.59741 | 6.70403 | 7 ft | 3 kts | 323° |
| 2026-04-24 20:03 | 53.59764 | 6.70372 | 7 ft | 5 kts | 322° |
| 2026-04-24 20:04 | 53.59787 | 6.70340 | 7 ft | 4 kts | 309° |
| 2026-04-24 20:04 | 53.59793 | 6.70309 | 7 ft | 3 kts | 268° |
| 2026-04-24 20:04 | 53.59797 | 6.70297 | 7 ft | 1 kts | 342° |
| 2026-04-24 20:04 | 53.59801 | 6.70295 | 7 ft | 0 kts | 337° |
| 2026-04-24 20:05 | 53.59801 | 6.70294 | 7 ft | 0 kts | 337° |
| 2026-04-24 20:05 | 53.59801 | 6.70295 | 7 ft | 0 kts | 337° |